Observations for ABERDEEN DYCE, United Kingdom (EGPD)

EGPD 211750Z AUTO 16020KT 4000 RA BKN007/// OVC021/// //////TCU 02/01 Q0999 NOSIG   
EGPD 211720Z AUTO 16019KT 5000 -RA BKN011/// OVC020/// //////TCU 02/01 Q1000 RERA REDZ TEMPO 3000 RASN BKN008   
EGPD 211650Z AUTO 16021KT 9999 -RA BKN018 BKN024 BKN028 03/M00 Q1000 TEMPO BKN014   
EGPD 211620Z AUTO 15017KT 9999 FEW021 BKN026 BKN034 03/M01 Q1001 NOSIG  
EGPD 211550Z 17021G33KT 9999 5000N -SHRASN SCT008 SCT017 03/M01 Q1002   
EGPD 211520Z 16019KT 9999 SCT025 03/M01 Q1002 TEMPO BKN008  
EGPD 211450Z AUTO 17017KT 9999 NCD 03/M01 Q1003 TEMPO BKN008
EGPD 211420Z AUTO 16019KT 9999 FEW025 03/M00 Q1004 NOSIG
EGPD 211350Z AUTO 17016KT 9999 FEW021 SCT025 03/M00 Q1005 NOSIG 
EGPD 211320Z AUTO 16013KT 9999 FEW025 03/M00 Q1005 NOSIG
EGPD 211250Z 17010KT 9999 SCT023 03/M00 Q1006 NOSIG 
EGPD 211220Z 17006KT 9999 SCT025 02/00 Q1007 NOSIG  
EGPD 211150Z 16005KT 9999 FEW015 02/M00 Q1007 NOSIG 
EGPD 211120Z AUTO 13003KT 9999 NCD M01/M02 Q1008 NOSIG  
EGPD 211050Z AUTO VRB01KT 9999 NCD M02/M03 Q1009 NOSIG  
EGPD 211020Z AUTO VRB01KT 9999 NCD M03/M04 Q1009 NOSIG  
EGPD 210950Z AUTO 00000KT 9999 NCD M04/M05 Q1010 NOSIG  
EGPD 210920Z AUTO VRB02KT 9999 NCD M05/M06 Q1010 NOSIG  
EGPD 210850Z AUTO 05001KT 9999 NCD M06/M07 Q1009 NOSIG  
EGPD 210820Z AUTO 20001KT 9999 NCD M05/M06 Q1010
EGPD 210750Z AUTO VRB03KT 9999 NCD M05/M06 Q1010 NOSIG  
EGPD 210720Z AUTO 36002KT 9999 NCD M06/M07 Q1010 NOSIG  
EGPD 210650Z AUTO 35002KT 9999 NCD M05/M06 Q1010 NOSIG  
EGPD 210620Z AUTO 33002KT 9999 NCD M04/M06 Q1010 NOSIG  
EGPD 210550Z AUTO VRB02KT 9999 NCD M04/M05 Q1011 NOSIG  
EGPD 210520Z AUTO VRB02KT 9999 NCD M04/M05 Q1011 NOSIG  
EGPD 210450Z AUTO VRB02KT 9999 NCD M04/M06 Q1010 NOSIG  
EGPD 210420Z AUTO VRB02KT 9999 NCD M03/M05 Q1010 NOSIG  
EGPD 210350Z AUTO VRB02KT 9999 NCD M01/M04 Q1010 NOSIG  
EGPD 210320Z AUTO VRB02KT 9999 NCD M01/M04 Q1010 NOSIG  
EGPD 210250Z AUTO VRB02KT 9999 NCD M01/M03 Q1010 NOSIG  
EGPD 210220Z AUTO 31008KT 9999 NCD M03/M05 Q1010 NOSIG  
EGPD 210150Z AUTO 30010KT 9999 NCD M03/M05 Q1010 NOSIG  
EGPD 210120Z AUTO VRB03KT 9999 NCD M02/M04 Q1009 NOSIG  
EGPD 210050Z AUTO 32004KT 290V020 9999 NCD M02/M04 Q1009 NOSIG  
EGPD 210020Z AUTO 30008KT 9999 NCD M00/M03 Q1009 NOSIG  
EGPD 202350Z AUTO 29011KT 9999 NCD 00/M03 Q1008 
EGPD 202320Z AUTO 31010KT 9999 NCD M01/M03 Q1008 NOSIG  
EGPD 202250Z AUTO 28008KT 9999 NCD M01/M03 Q1008 NOSIG  
EGPD 202220Z AUTO 27005KT 240V300 9999 NCD M01/M04 Q1007 NOSIG  
EGPD 202150Z AUTO 29008KT 9999 NCD M00/M03 Q1007 NOSIG  
EGPD 202120Z AUTO 29009KT 9999 NCD M00/M03 Q1006 NOSIG  
EGPD 202050Z AUTO 28007KT 9999 NCD M00/M03 Q1006 NOSIG  
EGPD 202020Z AUTO 29008KT 9999 NCD M00/M03 Q1006 NOSIG  
EGPD 201950Z AUTO 29009KT 9999 NCD M00/M02 Q1005 NOSIG  
EGPD 201920Z AUTO 30012KT 9999 NCD 00/M02 Q1005 NOSIG   
EGPD 201850Z AUTO 29010KT 9999 FEW030 00/M03 Q1004 NOSIG
EGPD 201820Z AUTO 28008KT 9999 NCD 00/M03 Q1004 NOSIG   
EGPD 201750Z AUTO 28008KT 9999 NCD 01/M03 Q1003 NOSIG   
EGPD 201720Z AUTO 29010KT 9999 //////TCU 01/M03 Q1002 NOSIG